Time;durP1;ratioP1;P1;durP2;ratioP2;P2;SDS_P1;SDS_P2;PMS_P1;PMS_P2;Temp;Humidity;BMP_temperature;BMP_pressure;BME280_temperature;BME280_humidity;BME280_pressure;Samples;Min_cycle;Max_cycle;Signal;HPM_P1;HPM_P2
2024/01/04 00:02:13;;;;;;;4.47;1.15;;;;;;;12.57;57.61;98703.84;5039638;28;20028;-41
2024/01/04 00:04:40;;;;;;;4.30;0.60;;;;;;;12.75;57.81;98702.03;5045202;28;20021;-40
2024/01/04 00:07:06;;;;;;;3.03;0.80;;;;;;;12.77;58.13;98708.00;5041613;28;20097;-40
2024/01/04 00:09:31;;;;;;;2.47;0.75;;;;;;;12.78;58.39;98706.16;5040692;28;20037;-40
2024/01/04 00:11:56;;;;;;;4.18;0.50;;;;;;;12.65;58.34;98704.75;5036549;28;20024;-40
2024/01/04 00:14:22;;;;;;;2.53;0.85;;;;;;;12.62;58.50;98707.69;5034944;28;20056;-40
2024/01/04 00:16:47;;;;;;;3.05;0.85;;;;;;;12.60;58.64;98708.84;5036056;28;20025;-40
2024/01/04 00:19:13;;;;;;;4.80;0.60;;;;;;;12.38;59.08;98710.13;5040642;28;20039;-40
2024/01/04 00:21:38;;;;;;;4.32;0.60;;;;;;;12.49;59.21;98705.41;5040936;28;20059;-40
2024/01/04 00:24:04;;;;;;;3.28;0.60;;;;;;;12.35;59.70;98706.78;5043659;28;20041;-40
2024/01/04 00:26:29;;;;;;;2.42;0.60;;;;;;;12.42;59.63;98707.03;5041947;28;20025;-42
2024/01/04 00:28:55;;;;;;;2.65;0.50;;;;;;;12.57;59.57;98714.41;5042343;28;20071;-40
2024/01/04 00:31:20;;;;;;;2.67;0.40;;;;;;;12.46;59.38;98703.09;5034682;28;20040;-39
2024/01/04 00:33:45;;;;;;;7.93;2.53;;;;;;;12.41;59.48;98710.63;5042080;28;20391;-40
2024/01/04 00:36:11;;;;;;;1.73;0.55;;;;;;;12.49;58.92;98708.06;5043206;28;20031;-40
2024/01/04 00:38:37;;;;;;;5.13;0.88;;;;;;;12.45;59.21;98711.16;5037860;28;20037;-40
2024/01/04 00:41:02;;;;;;;6.05;0.85;;;;;;;12.55;58.93;98711.94;5039401;28;20380;-41
2024/01/04 00:43:28;;;;;;;3.20;0.70;;;;;;;12.50;58.84;98714.19;5040275;28;20029;-40
2024/01/04 00:45:53;;;;;;;4.68;0.85;;;;;;;12.40;59.03;98714.25;5039762;28;20033;-40
2024/01/04 00:48:18;;;;;;;0.40;0.17;;;;;;;12.36;59.61;98710.25;5036314;28;20502;-39
2024/01/04 00:50:44;;;;;;;3.55;0.88;;;;;;;12.38;59.25;98713.56;5042014;28;20128;-40
2024/01/04 00:53:09;;;;;;;4.78;0.60;;;;;;;12.20;59.92;98719.66;5043669;28;20502;-41
2024/01/04 00:55:34;;;;;;;3.22;0.63;;;;;;;12.38;59.59;98721.47;5044314;28;20120;-40
2024/01/04 00:58:03;;;;;;;1.42;0.60;;;;;;;12.49;59.73;98710.69;5043209;28;20507;-40
2024/01/04 01:00:29;;;;;;;2.83;0.40;;;;;;;12.45;59.78;98712.00;5036722;28;20424;-40
2024/01/04 01:02:54;;;;;;;0.80;0.38;;;;;;;12.41;59.75;98710.63;5035172;28;20194;-40
2024/01/04 01:05:20;;;;;;;4.65;0.63;;;;;;;12.35;60.21;98712.06;5040151;28;20035;-39
2024/01/04 01:07:45;;;;;;;1.77;0.28;;;;;;;12.41;59.50;98712.44;5037665;28;20119;-40
2024/01/04 01:10:10;;;;;;;1.15;0.28;;;;;;;12.50;59.80;98717.63;5041490;28;20372;-40
2024/01/04 01:12:36;;;;;;;1.67;0.30;;;;;;;12.57;59.58;98711.75;5042112;28;20120;-41
2024/01/04 01:15:01;;;;;;;2.22;0.30;;;;;;;12.51;59.42;98710.56;5033825;28;20033;-40
2024/01/04 01:17:26;;;;;;;3.30;0.50;;;;;;;12.49;59.18;98718.63;5036871;28;20043;-40
2024/01/04 01:19:52;;;;;;;7.53;1.95;;;;;;;12.49;59.34;98718.63;5036529;28;20150;-41
2024/01/04 01:22:17;;;;;;;1.58;0.50;;;;;;;12.44;59.26;98715.63;5033443;28;20036;-40
2024/01/04 01:24:42;;;;;;;2.53;0.45;;;;;;;12.53;59.12;98724.44;5040856;28;20043;-40
2024/01/04 01:27:08;;;;;;;7.22;0.70;;;;;;;12.61;59.23;98721.84;5044965;28;20439;-40
2024/01/04 01:29:33;;;;;;;4.10;0.52;;;;;;;12.46;59.18;98721.56;5040904;28;20034;-40
2024/01/04 01:31:59;;;;;;;3.08;0.65;;;;;;;12.58;59.28;98716.06;5040766;28;20210;-40
2024/01/04 01:34:24;;;;;;;2.70;0.60;;;;;;;12.54;59.34;98725.25;5038537;28;20177;-40
2024/01/04 01:36:49;;;;;;;3.53;0.50;;;;;;;12.40;59.91;98716.88;5040387;28;20025;-40
2024/01/04 01:39:14;;;;;;;3.80;0.63;;;;;;;12.46;59.74;98721.56;5040736;28;20516;-40
2024/01/04 01:41:40;;;;;;;2.60;0.40;;;;;;;12.38;60.12;98720.66;5040120;28;20056;-40
2024/01/04 01:44:05;;;;;;;2.50;0.40;;;;;;;12.43;60.16;98719.22;5042576;28;20040;-40
2024/01/04 01:46:31;;;;;;;1.92;0.50;;;;;;;12.50;59.55;98732.66;5038744;28;20441;-40
2024/01/04 01:48:57;;;;;;;2.03;0.70;;;;;;;12.45;59.78;98729.63;5041059;28;20036;-40
2024/01/04 01:51:22;;;;;;;1.60;0.68;;;;;;;12.43;60.02;98723.66;5040938;28;20590;-40
2024/01/04 01:53:48;;;;;;;2.67;0.40;;;;;;;12.47;59.59;98727.66;5037716;28;20774;-40
2024/01/04 01:56:13;;;;;;;0.75;0.40;;;;;;;12.49;59.75;98723.88;5041743;28;20036;-40
2024/01/04 01:58:39;;;;;;;4.68;0.57;;;;;;;12.42;59.84;98728.13;5041773;28;20086;-40
2024/01/04 02:01:05;;;;;;;1.83;0.57;;;;;;;12.42;59.94;98727.28;5036040;28;20086;-40
2024/01/04 02:03:30;;;;;;;1.20;0.63;;;;;;;12.35;59.66;98732.31;5034216;28;20029;-40
2024/01/04 02:05:56;;;;;;;5.72;0.70;;;;;;;12.42;59.84;98730.75;5046944;28;20041;-40
2024/01/04 02:08:21;;;;;;;2.72;0.95;;;;;;;12.52;59.94;98727.22;5042769;28;20407;-39
2024/01/04 02:10:47;;;;;;;2.17;0.47;;;;;;;12.34;59.99;98730.66;5041125;28;20033;-40
2024/01/04 02:13:12;;;;;;;1.17;0.50;;;;;;;12.26;60.24;98733.22;5045402;28;20070;-40
2024/01/04 02:15:38;;;;;;;1.75;0.50;;;;;;;12.17;60.57;98748.97;5040921;28;20040;-40
2024/01/04 02:18:04;;;;;;;2.40;0.80;;;;;;;12.29;60.90;98738.22;5041350;28;20438;-40
2024/01/04 02:20:29;;;;;;;4.13;0.50;;;;;;;12.10;61.60;98734.72;5043427;28;20372;-40
2024/01/04 02:22:54;;;;;;;2.10;0.50;;;;;;;12.12;61.99;98743.31;5039274;28;20057;-40
2024/01/04 02:25:20;;;;;;;2.67;0.40;;;;;;;12.01;62.62;98740.88;5044739;28;20052;-41
2024/01/04 02:27:45;;;;;;;1.80;0.40;;;;;;;12.06;62.53;98733.34;5043754;28;20025;-42
2024/01/04 02:30:11;;;;;;;1.20;0.50;;;;;;;12.16;62.27;98733.28;5042292;28;20119;-41
2024/01/04 02:32:37;;;;;;;2.25;0.60;;;;;;;12.11;62.22;98731.09;5039591;28;20063;-40
2024/01/04 02:35:04;;;;;;;4.32;0.55;;;;;;;12.19;62.24;98738.25;5047228;28;20029;-40
2024/01/04 02:37:29;;;;;;;2.17;0.80;;;;;;;12.18;62.14;98741.88;5038709;28;20483;-40
2024/01/04 02:39:54;;;;;;;1.85;0.50;;;;;;;12.12;61.70;98740.66;5041858;28;20036;-40
2024/01/04 02:42:20;;;;;;;3.55;0.68;;;;;;;11.99;61.59;98740.19;5044213;28;20466;-40
2024/01/04 02:44:45;;;;;;;7.22;0.73;;;;;;;12.02;61.30;98732.81;5041848;28;20032;-40
2024/01/04 02:47:10;;;;;;;1.65;0.35;;;;;;;12.04;61.59;98740.56;5042506;28;20021;-40
2024/01/04 02:49:38;;;;;;;2.35;0.57;;;;;;;11.99;61.45;98742.81;5040498;28;20060;-40
2024/01/04 02:52:03;;;;;;;1.58;0.73;;;;;;;12.03;61.50;98736.25;5039819;28;20029;-41
2024/01/04 02:54:29;;;;;;;3.17;1.02;;;;;;;11.94;61.38;98737.97;5041758;28;20036;-40
2024/01/04 02:56:54;;;;;;;4.68;0.80;;;;;;;11.99;61.51;98730.47;5042448;28;20082;-42
2024/01/04 02:59:19;;;;;;;1.40;0.70;;;;;;;12.03;61.59;98734.47;5041247;28;20120;-40
2024/01/04 03:01:48;;;;;;;4.00;0.50;;;;;;;12.08;61.30;98736.66;5041982;28;20562;-40
2024/01/04 03:04:14;;;;;;;2.20;0.85;;;;;;;12.19;61.08;98733.81;5040071;28;20048;-40
2024/01/04 03:06:39;;;;;;;2.78;0.90;;;;;;;12.07;61.33;98740.28;5038330;28;20033;-40
2024/01/04 03:09:05;;;;;;;1.58;0.40;;;;;;;12.15;60.88;98739.53;5039479;28;20064;-40
2024/01/04 03:11:31;;;;;;;1.52;0.60;;;;;;;12.17;61.01;98733.16;5037925;28;20029;-41
2024/01/04 03:13:56;;;;;;;1.85;0.68;;;;;;;11.99;61.37;98737.56;5038324;28;20082;-40
2024/01/04 03:16:22;;;;;;;2.03;0.90;;;;;;;12.17;60.88;98733.16;5036937;28;20064;-40
2024/01/04 03:18:47;;;;;;;1.88;0.65;;;;;;;12.13;60.96;98726.50;5038133;28;20504;-40
2024/01/04 03:21:13;;;;;;;2.75;0.80;;;;;;;11.98;61.14;98734.06;5036221;28;20044;-40
2024/01/04 03:23:38;;;;;;;193.90;51.78;;;;;;;12.03;61.04;98726.56;5037992;28;20090;-40
2024/01/04 03:26:04;;;;;;;4.60;0.90;;;;;;;12.24;60.77;98735.19;5037116;28;20405;-40
2024/01/04 03:28:30;;;;;;;5.72;0.85;;;;;;;12.05;61.16;98731.69;5038552;28;20060;-40
2024/01/04 03:30:55;;;;;;;1.98;0.88;;;;;;;12.02;61.08;98739.91;5040811;28;20440;-40
2024/01/04 03:33:21;;;;;;;3.03;0.63;;;;;;;12.12;60.94;98737.19;5042658;28;20043;-41
2024/01/04 03:35:46;;;;;;;5.93;0.52;;;;;;;12.02;61.05;98743.34;5044922;28;20108;-40
2024/01/04 03:38:11;;;;;;;3.10;0.60;;;;;;;12.06;61.29;98732.53;5045682;28;20041;-40
2024/01/04 03:40:37;;;;;;;5.35;1.33;;;;;;;11.93;61.45;98738.09;5042275;28;20021;-40
2024/01/04 03:43:04;;;;;;;2.58;0.70;;;;;;;12.04;61.37;98740.56;5044950;28;20048;-40
2024/01/04 03:45:30;;;;;;;3.05;0.65;;;;;;;11.88;61.51;98730.63;5041917;28;20021;-40
2024/01/04 03:47:56;;;;;;;2.40;0.80;;;;;;;11.82;61.63;98737.31;5048620;28;20035;-39
2024/01/04 03:50:21;;;;;;;2.92;0.73;;;;;;;11.88;62.09;98736.72;5049050;28;20109;-41
2024/01/04 03:52:47;;;;;;;3.58;0.88;;;;;;;11.90;62.04;98733.97;5044424;28;20112;-40
2024/01/04 03:55:15;;;;;;;2.65;1.00;;;;;;;11.84;62.04;98735.38;5045305;28;20032;-40
2024/01/04 03:57:42;;;;;;;1.58;0.75;;;;;;;12.03;61.87;98741.53;5044361;28;20036;-40
2024/01/04 04:00:08;;;;;;;1.20;0.70;;;;;;;11.85;62.11;98736.19;5044280;28;20041;-39
2024/01/04 04:02:34;;;;;;;1.45;0.60;;;;;;;11.96;61.92;98741.25;5045857;28;20025;-40
2024/01/04 04:04:59;;;;;;;4.88;0.80;;;;;;;11.88;62.09;98734.09;5047103;28;20386;-40
2024/01/04 04:07:24;;;;;;;2.80;0.93;;;;;;;11.82;62.47;98742.59;5046431;28;20033;-39
2024/01/04 04:09:50;;;;;;;3.88;1.15;;;;;;;11.86;62.34;98738.69;5046679;28;20435;-40
2024/01/04 04:12:15;;;;;;;2.78;0.82;;;;;;;11.95;62.16;98741.41;5041158;28;20032;-40
2024/01/04 04:14:41;;;;;;;1.25;0.52;;;;;;;11.81;62.47;98738.28;5040811;28;20039;-40
2024/01/04 04:17:06;;;;;;;2.90;0.70;;;;;;;11.58;62.95;98736.00;5043610;28;20171;-41
2024/01/04 04:19:32;;;;;;;4.97;1.00;;;;;;;11.85;62.93;98744.94;5044723;28;20446;-40
2024/01/04 04:21:57;;;;;;;3.42;1.10;;;;;;;11.78;62.71;98746.50;5042893;28;20063;-40
2024/01/04 04:24:23;;;;;;;3.33;0.80;;;;;;;11.70;63.07;98744.56;5046611;28;20039;-40
2024/01/04 04:26:49;;;;;;;2.75;1.08;;;;;;;11.79;63.49;98747.34;5042380;28;20029;-40
2024/01/04 04:29:14;;;;;;;2.80;0.85;;;;;;;11.71;64.04;98751.50;5026997;28;20048;-41
2024/01/04 04:31:40;;;;;;;1.88;0.80;;;;;;;11.73;63.96;98752.19;5037141;28;20043;-39
2024/01/04 04:34:05;;;;;;;3.83;0.70;;;;;;;11.52;64.61;98752.41;5039171;28;20052;-40
2024/01/04 04:36:31;;;;;;;1.98;0.52;;;;;;;11.37;63.83;98756.47;5045198;28;20036;-40
2024/01/04 04:39:00;;;;;;;3.33;0.50;;;;;;;11.50;63.83;98750.88;5042345;28;20045;-40
2024/01/04 04:41:26;;;;;;;0.75;0.50;;;;;;;11.64;64.08;98744.31;5043699;28;20033;-40
2024/01/04 04:43:51;;;;;;;0.63;0.40;;;;;;;11.77;63.58;98749.28;5044616;28;20072;-41
2024/01/04 04:46:18;;;;;;;0.80;0.45;;;;;;;11.78;63.47;98751.75;5042173;28;20033;-40
2024/01/04 04:48:44;;;;;;;2.67;1.30;;;;;;;11.71;63.49;98748.88;5046187;28;20543;-40
2024/01/04 04:51:10;;;;;;;1.98;0.60;;;;;;;11.80;63.66;98749.00;5043964;28;20120;-40
2024/01/04 04:53:36;;;;;;;1.08;0.40;;;;;;;11.79;63.85;98756.06;5043888;28;20128;-39
2024/01/04 04:56:01;;;;;;;0.85;0.40;;;;;;;11.70;63.94;98754.31;5046629;28;20021;-40
2024/01/04 04:58:28;;;;;;;1.67;0.65;;;;;;;11.69;64.21;98758.72;5045121;28;20029;-40
2024/01/04 05:00:54;;;;;;;0.75;0.40;;;;;;;11.59;64.26;98761.38;5043082;28;20067;-40
2024/01/04 05:03:19;;;;;;;1.13;0.50;;;;;;;11.74;64.24;98767.03;5040035;28;20422;-39
2024/01/04 05:05:44;;;;;;;0.35;0.30;;;;;;;11.74;64.46;98755.66;5044489;28;20615;-40
2024/01/04 05:08:10;;;;;;;0.73;0.43;;;;;;;11.79;64.09;98763.97;5043989;28;20029;-40
2024/01/04 05:10:35;;;;;;;0.90;0.50;;;;;;;11.73;64.05;98762.75;5046614;28;20414;-40
2024/01/04 05:13:01;;;;;;;0.57;0.30;;;;;;;11.69;64.65;98771.06;5045999;28;20060;-40
2024/01/04 05:15:27;;;;;;;0.73;0.30;;;;;;;11.60;65.03;98767.50;5042853;28;20029;-40
2024/01/04 05:17:52;;;;;;;2.03;0.60;;;;;;;11.69;64.55;98773.72;5044742;28;20047;-41
2024/01/04 05:20:18;;;;;;;3.22;0.70;;;;;;;11.81;64.22;98772.56;5042487;28;20032;-40
2024/01/04 05:22:44;;;;;;;3.97;0.65;;;;;;;11.74;64.43;98776.72;5044480;28;20032;-41
2024/01/04 05:25:13;;;;;;;1.70;0.38;;;;;;;11.76;64.69;98779.22;5045927;28;20020;-41
2024/01/04 05:27:38;;;;;;;0.55;0.50;;;;;;;11.70;64.81;98775.38;5043681;28;20031;-41
2024/01/04 05:30:07;;;;;;;1.77;0.93;;;;;;;11.82;64.71;98782.13;5043735;28;20029;-40
2024/01/04 05:32:33;;;;;;;2.03;0.95;;;;;;;11.90;64.53;98776.94;5044296;28;20053;-40
2024/01/04 05:34:59;;;;;;;1.70;0.80;;;;;;;11.73;64.92;98777.69;5043138;28;20107;-41
2024/01/04 05:37:24;;;;;;;2.50;0.65;;;;;;;11.78;64.86;98777.28;5044097;28;20411;-40
2024/01/04 05:39:49;;;;;;;1.60;0.70;;;;;;;11.66;65.27;98779.25;5045769;28;20292;-41
2024/01/04 05:42:15;;;;;;;3.80;0.80;;;;;;;11.63;65.21;98790.09;5045483;28;20546;-40
2024/01/04 05:44:40;;;;;;;2.05;1.00;;;;;;;11.68;65.24;98793.13;5042750;28;20032;-40
2024/01/04 05:47:07;;;;;;;6.75;1.50;;;;;;;11.63;65.10;98800.63;5042546;28;20071;-40
2024/01/04 05:49:32;;;;;;;1.80;0.70;;;;;;;11.68;65.35;98803.66;5045686;28;20522;-40
2024/01/04 05:51:57;;;;;;;1.63;0.82;;;;;;;11.71;64.89;98803.38;5027308;28;20041;-39
2024/01/04 05:54:23;;;;;;;1.33;0.65;;;;;;;11.46;65.16;98815.38;5031086;28;20036;-41
2024/01/04 05:56:49;;;;;;;1.25;0.68;;;;;;;11.44;65.26;98808.44;5043808;28;20468;-41
2024/01/04 05:59:14;;;;;;;1.25;0.80;;;;;;;11.58;65.10;98819.50;5041950;28;20326;-40
2024/01/04 06:01:40;;;;;;;5.85;1.30;;;;;;;11.62;65.19;98820.03;5042145;28;20068;-40
2024/01/04 06:04:05;;;;;;;3.35;0.88;;;;;;;11.06;66.52;98828.56;5043071;28;20025;-40
2024/01/04 06:06:31;;;;;;;2.58;0.90;;;;;;;11.11;67.11;98828.16;5044843;28;20021;-40
2024/01/04 06:08:56;;;;;;;2.90;0.90;;;;;;;11.15;66.70;98820.81;5044623;28;20112;-40
2024/01/04 06:11:22;;;;;;;2.17;1.08;;;;;;;11.45;66.18;98825.06;5038473;28;20107;-40
2024/01/04 06:13:48;;;;;;;1.48;0.77;;;;;;;11.49;65.92;98826.44;5044702;28;20033;-40
2024/01/04 06:16:13;;;;;;;4.07;1.40;;;;;;;11.66;65.63;98824.88;5042394;28;20087;-40
2024/01/04 06:18:38;;;;;;;2.22;0.93;;;;;;;11.47;65.29;98833.66;5042764;28;20535;-41
2024/01/04 06:21:07;;;;;;;4.15;0.80;;;;;;;11.43;65.00;98834.91;5042533;28;20029;-39
2024/01/04 06:23:32;;;;;;;3.42;0.90;;;;;;;11.58;64.58;98836.13;5042951;28;20110;-40
2024/01/04 06:25:58;;;;;;;1.00;0.43;;;;;;;11.50;64.15;98837.78;5024379;28;20041;-40
2024/01/04 06:28:23;;;;;;;3.45;0.80;;;;;;;11.59;64.25;98843.03;5043800;28;20037;-40
2024/01/04 06:30:49;;;;;;;1.60;0.65;;;;;;;11.55;63.75;98846.13;5041895;28;20038;-40
2024/01/04 06:33:15;;;;;;;3.72;0.90;;;;;;;11.42;63.75;98859.56;5042108;28;20048;-40
2024/01/04 06:35:40;;;;;;;1.45;0.50;;;;;;;11.44;63.45;98855.00;5043983;28;20021;-40
2024/01/04 06:38:08;;;;;;;1.45;0.50;;;;;;;11.10;64.00;98861.53;5041063;28;20466;-41
2024/01/04 06:40:37;;;;;;;1.35;0.93;;;;;;;11.29;63.74;98858.06;5037227;28;20032;-40
2024/01/04 06:43:08;;;;;;;1.75;0.55;;;;;;;10.91;63.99;98859.72;5037959;28;20025;-41
2024/01/04 06:45:33;;;;;;;1.55;0.55;;;;;;;11.12;63.77;98864.00;5036853;28;20052;-39
2024/01/04 06:47:59;;;;;;;0.73;0.40;;;;;;;11.22;63.88;98861.38;5042157;28;20128;-40
2024/01/04 06:50:24;;;;;;;3.33;0.60;;;;;;;10.81;63.97;98859.72;5043311;28;20479;-40
2024/01/04 06:52:49;;;;;;;2.80;0.70;;;;;;;10.94;64.09;98872.63;5044281;28;20071;-40
2024/01/04 06:55:15;;;;;;;3.15;0.82;;;;;;;10.80;63.63;98873.81;5044879;28;20032;-40
2024/01/04 06:57:41;;;;;;;1.13;0.70;;;;;;;10.89;63.78;98868.75;5044543;28;20422;-40
2024/01/04 07:00:07;;;;;;;1.13;0.60;;;;;;;10.88;63.70;98860.00;5048385;28;20075;-40
2024/01/04 07:02:35;;;;;;;3.97;1.60;;;;;;;11.11;63.47;98876.34;5044594;28;20033;-41
2024/01/04 07:05:03;;;;;;;1.33;0.70;;;;;;;10.82;64.08;98887.69;5042951;28;20017;-39
2024/01/04 07:07:32;;;;;;;3.50;1.15;;;;;;;10.84;63.94;98892.81;5047816;28;20124;-39
2024/01/04 07:09:58;;;;;;;0.60;0.40;;;;;;;10.41;64.99;98899.19;5041504;28;20511;-39
2024/01/04 07:12:27;;;;;;;0.50;0.40;;;;;;;9.91;66.65;98932.25;5039486;28;20063;-40
2024/01/04 07:14:53;;;;;;;1.27;0.40;;;;;;;10.23;65.61;98923.44;5038712;28;20028;-41
2024/01/04 07:17:19;;;;;;;0.77;0.30;;;;;;;10.06;66.06;98923.06;5041440;28;20094;-41
2024/01/04 07:19:45;;;;;;;1.17;0.40;;;;;;;9.73;67.67;98927.59;5044748;28;20033;-40
2024/01/04 07:22:11;;;;;;;0.40;0.30;;;;;;;9.40;67.32;98934.66;5038610;28;20112;-39
2024/01/04 07:24:36;;;;;;;0.57;0.30;;;;;;;9.30;67.37;98925.88;5042699;28;20112;-41
2024/01/04 07:27:03;;;;;;;0.43;0.30;;;;;;;8.91;66.73;98941.25;5045678;28;20052;-39
2024/01/04 07:29:29;;;;;;;1.02;0.40;;;;;;;9.05;66.48;98942.78;5051176;28;20449;-40
2024/01/04 07:31:55;;;;;;;0.25;0.20;;;;;;;9.29;65.77;98937.34;5044661;28;20648;-39
2024/01/04 07:34:21;;;;;;;0.20;0.20;;;;;;;9.42;65.47;98931.91;5050304;28;20079;-40
2024/01/04 07:36:46;;;;;;;0.20;0.20;;;;;;;9.33;65.02;98933.50;5049200;28;20588;-39
2024/01/04 07:39:12;;;;;;;0.68;0.20;;;;;;;9.08;64.48;98942.50;5047347;28;20108;-40
2024/01/04 07:41:37;;;;;;;0.20;0.20;;;;;;;9.24;64.23;98936.88;5043593;28;20021;-40
2024/01/04 07:44:03;;;;;;;0.20;0.20;;;;;;;9.06;63.88;98953.13;5050931;28;20115;-40
2024/01/04 07:46:28;;;;;;;0.28;0.25;;;;;;;9.24;64.01;98944.75;5049109;28;20036;-40
2024/01/04 07:48:53;;;;;;;0.98;0.30;;;;;;;9.30;63.11;98945.09;5049584;28;20528;-40
2024/01/04 07:51:19;;;;;;;0.40;0.30;;;;;;;9.00;63.12;98943.13;5047014;28;20394;-40
2024/01/04 07:53:44;;;;;;;1.27;0.50;;;;;;;9.28;62.50;98948.81;5039318;28;20036;-41
2024/01/04 07:56:09;;;;;;;0.55;0.30;;;;;;;8.95;62.29;98953.16;5046120;28;20033;-39
2024/01/04 07:58:35;;;;;;;0.10;0.10;;;;;;;8.36;63.02;98957.72;5041008;28;20025;-40
2024/01/04 08:01:00;;;;;;;1.42;0.35;;;;;;;8.80;62.49;98949.97;5050376;28;20033;-39
2024/01/04 08:03:25;;;;;;;0.20;0.20;;;;;;;8.87;62.32;98964.28;5049548;28;20024;-39
2024/01/04 08:05:51;;;;;;;5.70;0.60;;;;;;;8.94;61.98;98973.31;5040778;28;20163;-40
2024/01/04 08:08:16;;;;;;;1.10;0.47;;;;;;;8.85;62.34;98966.19;5049216;28;20033;-40
2024/01/04 08:10:42;;;;;;;0.55;0.22;;;;;;;8.30;63.53;98966.03;5044974;28;20033;-40
2024/01/04 08:13:08;;;;;;;2.30;0.40;;;;;;;9.06;62.83;98973.31;5042807;28;20364;-40
2024/01/04 08:15:33;;;;;;;0.95;0.40;;;;;;;8.69;62.67;98982.28;5052084;28;20570;-40
2024/01/04 08:18:00;;;;;;;6.68;0.57;;;;;;;8.84;62.89;98983.72;5048291;28;20029;-40
2024/01/04 08:20:26;;;;;;;0.22;0.22;;;;;;;8.86;62.45;98988.84;5045173;28;20124;-39
2024/01/04 08:22:52;;;;;;;1.17;0.28;;;;;;;9.04;63.12;98988.34;5045497;28;20104;-40
2024/01/04 08:25:17;;;;;;;4.78;0.55;;;;;;;8.73;64.55;98982.88;5048554;28;20063;-39
2024/01/04 08:27:43;;;;;;;0.20;0.20;;;;;;;8.46;65.08;99003.22;5046985;28;20116;-40
2024/01/04 08:30:09;;;;;;;0.75;0.40;;;;;;;8.55;64.96;99006.94;5045128;28;20041;-39
2024/01/04 08:32:35;;;;;;;0.28;0.20;;;;;;;8.31;65.99;98991.28;5043842;28;20041;-39
2024/01/04 08:35:00;;;;;;;0.10;0.10;;;;;;;8.60;65.06;99006.59;5050595;28;20120;-42
2024/01/04 08:37:25;;;;;;;0.63;0.38;;;;;;;8.69;64.66;98995.41;5042811;28;20155;-39
2024/01/04 08:39:51;;;;;;;0.22;0.22;;;;;;;8.28;64.15;99012.47;5042707;28;20584;-40
2024/01/04 08:42:16;;;;;;;1.25;0.45;;;;;;;8.60;64.02;99001.34;5040467;28;20040;-39
2024/01/04 08:44:41;;;;;;;1.23;0.40;;;;;;;8.36;64.69;99012.75;5045640;28;20032;-40
2024/01/04 08:47:07;;;;;;;2.28;0.38;;;;;;;8.14;63.85;99001.25;5046744;28;20522;-40
2024/01/04 08:49:33;;;;;;;2.03;0.52;;;;;;;8.36;63.98;99000.47;5047784;28;20043;-39
2024/01/04 08:51:58;;;;;;;0.95;0.30;;;;;;;8.83;63.33;99002.19;5045226;28;20056;-40
2024/01/04 08:54:23;;;;;;;0.73;0.50;;;;;;;8.51;63.25;99008.97;5048385;28;20123;-40
2024/01/04 08:56:49;;;;;;;0.60;0.40;;;;;;;8.55;62.76;99025.31;5042600;28;20458;-41
2024/01/04 08:59:14;;;;;;;0.35;0.30;;;;;;;8.38;62.61;99018.72;5047614;28;20048;-40
2024/01/04 09:01:39;;;;;;;1.35;0.50;;;;;;;8.64;62.55;99013.28;5046578;28;20029;-40
2024/01/04 09:04:05;;;;;;;0.95;0.30;;;;;;;8.61;61.83;99019.59;5041580;28;20036;-40
2024/01/04 09:06:32;;;;;;;0.30;0.20;;;;;;;8.60;62.53;99022.31;5047254;28;20033;-40
2024/01/04 09:08:59;;;;;;;0.30;0.25;;;;;;;8.45;62.80;99017.28;5045549;28;20029;-39
2024/01/04 09:11:29;;;;;;;1.17;0.52;;;;;;;8.09;62.51;99042.72;5045679;28;20036;-40
2024/01/04 09:13:54;;;;;;;0.10;0.10;;;;;;;8.11;62.75;99046.03;5045416;28;20037;-39
2024/01/04 09:16:22;;;;;;;0.47;0.38;;;;;;;8.27;64.43;99052.72;5045229;28;20028;-49
2024/01/04 09:18:47;;;;;;;0.57;0.30;;;;;;;8.23;63.37;99058.22;5044757;28;20043;-40
2024/01/04 09:21:12;;;;;;;0.80;0.40;;;;;;;8.57;63.02;99064.50;5046114;28;20040;-39
2024/01/04 09:23:38;;;;;;;2.10;0.30;;;;;;;8.13;63.53;99065.09;5045783;28;20025;-40
2024/01/04 09:26:08;;;;;;;0.88;0.40;;;;;;;8.20;64.42;99063.69;5045419;28;20052;-40
2024/01/04 09:28:34;;;;;;;0.28;0.20;;;;;;;7.80;64.87;99071.84;5042636;28;20032;-39
2024/01/04 09:31:00;;;;;;;2.25;0.40;;;;;;;7.44;65.52;99074.41;5040179;28;20029;-39
2024/01/04 09:33:25;;;;;;;1.45;0.60;;;;;;;6.98;66.11;99065.44;5045174;28;20473;-40
2024/01/04 09:35:51;;;;;;;0.20;0.20;;;;;;;7.26;66.17;99083.59;5045328;28;20515;-40
2024/01/04 09:38:16;;;;;;;0.50;0.40;;;;;;;7.00;65.52;99079.22;5046095;28;20055;-39
2024/01/04 09:40:41;;;;;;;0.60;0.30;;;;;;;7.09;65.38;99087.38;5047601;28;20044;-39
2024/01/04 09:43:09;;;;;;;0.38;0.20;;;;;;;6.76;65.15;99080.91;5045716;28;20032;-39
2024/01/04 09:45:38;;;;;;;0.65;0.40;;;;;;;7.23;64.75;99102.94;5045205;28;20399;-39
2024/01/04 09:48:10;;;;;;;0.63;0.40;;;;;;;7.04;64.55;99097.31;5041961;28;20060;-39
2024/01/04 09:50:37;;;;;;;0.43;0.25;;;;;;;7.28;63.97;99098.22;5049380;28;20386;-39
2024/01/04 09:53:03;;;;;;;0.73;0.30;;;;;;;7.00;64.29;99089.69;5049904;28;20104;-39
2024/01/04 09:55:30;;;;;;;0.43;0.28;;;;;;;7.09;64.55;99092.59;5047422;28;20053;-39
2024/01/04 09:57:56;;;;;;;0.40;0.40;;;;;;;6.96;64.36;99097.84;5045373;28;20033;-39
2024/01/04 10:00:22;;;;;;;0.88;0.40;;;;;;;7.16;64.30;99115.59;5039589;28;20066;-39
2024/01/04 10:02:49;;;;;;;0.80;0.30;;;;;;;7.21;64.89;99109.22;5037423;28;20037;-39
2024/01/04 10:05:16;;;;;;;1.17;0.25;;;;;;;6.96;65.09;99118.75;5047117;28;20427;-39
2024/01/04 10:07:59;;;;;;;1.52;0.50;;;;;;;7.04;64.90;99123.47;5046067;28;20255;-40
2024/01/04 10:10:29;;;;;;;1.50;0.63;;;;;;;7.30;64.11;99130.34;5012200;28;20064;-39
2024/01/04 10:12:57;;;;;;;0.52;0.20;;;;;;;7.05;64.46;99132.97;5036458;28;20129;-40
2024/01/04 10:15:22;;;;;;;0.30;0.30;;;;;;;7.05;63.85;99127.75;5042887;28;20043;-40
2024/01/04 10:17:49;;;;;;;0.30;0.30;;;;;;;6.78;63.64;99132.16;5044928;28;20116;-39
2024/01/04 10:20:14;;;;;;;0.22;0.22;;;;;;;7.22;62.85;99161.44;5028951;28;20148;-39
2024/01/04 10:22:40;;;;;;;0.25;0.20;;;;;;;7.23;62.13;99152.63;5040600;28;20174;-39
2024/01/04 10:25:18;;;;;;;0.52;0.28;;;;;;;6.97;62.75;99152.66;5047379;28;20036;-39
2024/01/04 10:27:53;;;;;;;1.27;0.30;;;;;;;7.33;62.63;99152.84;5044426;28;20167;-39
2024/01/04 10:30:19;;;;;;;0.88;0.20;;;;;;;7.19;63.12;99166.88;5046313;28;20032;-41
2024/01/04 10:32:49;;;;;;;2.15;0.40;;;;;;;7.18;63.01;99162.59;5045550;28;20025;-39
2024/01/04 10:35:15;;;;;;;0.30;0.30;;;;;;;6.93;63.24;99177.34;5048649;28;20064;-39
2024/01/04 10:37:40;;;;;;;0.43;0.20;;;;;;;6.50;63.75;99167.16;5045505;28;20039;-42
2024/01/04 10:40:09;;;;;;;0.52;0.20;;;;;;;6.28;64.42;99178.16;5046236;28;20373;-41
2024/01/04 10:42:35;;;;;;;2.38;0.30;;;;;;;6.77;63.46;99176.69;5047117;28;20048;-39
2024/01/04 10:45:00;;;;;;;0.20;0.20;;;;;;;6.27;64.66;99190.41;5041504;28;20528;-40
2024/01/04 10:47:27;;;;;;;0.40;0.32;;;;;;;6.38;65.05;99187.91;5045482;28;20040;-40
2024/01/04 10:49:59;;;;;;;0.20;0.20;;;;;;;6.68;64.83;99184.22;5042559;28;20118;-39
2024/01/04 10:52:29;;;;;;;0.30;0.30;;;;;;;6.82;64.17;99183.28;5044346;28;20072;-39
2024/01/04 10:54:56;;;;;;;0.20;0.20;;;;;;;6.66;64.55;99183.50;5045054;28;20036;-39
2024/01/04 10:57:23;;;;;;;0.20;0.20;;;;;;;6.39;65.50;99200.06;5040577;28;20543;-40
2024/01/04 10:59:50;;;;;;;0.47;0.32;;;;;;;6.43;65.30;99194.63;5043606;28;20029;-41
2024/01/04 11:02:17;;;;;;;1.08;0.30;;;;;;;6.88;65.05;99202.13;5043076;28;20025;-39
2024/01/04 11:04:43;;;;;;;0.73;0.50;;;;;;;6.84;65.40;99206.72;5045860;28;20029;-40
2024/01/04 11:07:09;;;;;;;0.17;0.17;;;;;;;6.21;66.85;99201.22;5045842;28;20030;-39
2024/01/04 11:09:35;;;;;;;0.65;0.52;;;;;;;6.52;65.94;99210.53;5045238;28;20025;-40
2024/01/04 11:12:03;;;;;;;0.17;0.17;;;;;;;6.56;66.14;99209.38;5045130;28;20558;-40
2024/01/04 11:14:29;;;;;;;0.30;0.20;;;;;;;6.49;66.32;99217.72;5041030;28;20124;-40
2024/01/04 11:17:21;;;;;;;1351.10;505.25;;;;;;;6.73;65.21;99220.50;5037237;28;20033;-39
2024/01/04 11:20:26;;;;;;;7.15;1.23;;;;;;;6.59;66.06;99237.09;5043788;28;20425;-39
2024/01/04 11:23:03;;;;;;;10.93;2.20;;;;;;;6.25;66.37;99231.44;5038128;28;20086;-39
2024/01/04 11:25:37;;;;;;;9.85;1.35;;;;;;;6.39;66.61;99227.94;5041188;28;20103;-39
2024/01/04 11:28:06;;;;;;;10.98;1.70;;;;;;;6.52;66.29;99228.81;5042789;28;20030;-40
2024/01/04 11:30:32;;;;;;;10.38;1.45;;;;;;;6.21;66.97;99237.81;5034759;28;20108;-39
2024/01/04 11:32:57;;;;;;;11.20;1.95;;;;;;;6.45;66.83;99234.53;5040218;28;20116;-40